Fuerteventura (La Oliva), Spain
Current Conditions -  °F | °C
As of 8:08 PM on Wednesday 26 Nov 2014 (Local Time) from GCFV Reporting Station
Moderate Rain Moderate Rain  
Wind Chill: 68°   Ceiling: Unl
Heat Index: 68°   Visibility: 4mi
Dew Point: 61°   Wind: 12mph
Humidity: 78%   Direction: 300°WNW
Pressure: 30"   Gusts: NA
Location:  28.6°N, 13.93°W
Report Text: GCFV 262008Z 30010KT 270V350 7000 RA SCT030 20/16 Q1016
Loading
Personal Weather Stations






























Interactive Weather Map New forecast layout! Learn more

10-Day Weather Forecast

Advertisements
Track Severe Weather on mobile